sensor_id;sensor_type;location;lat;lon;timestamp;P1;durP1;ratioP1;P2;durP2;ratioP2
61739;SDS011;47645;45.288;12.038;2023-05-16T00:00:06;3.9;;;0.8;;
61739;SDS011;47645;45.288;12.038;2023-05-16T00:10:06;2.1;;;0.6;;
61739;SDS011;47645;45.288;12.038;2023-05-16T00:20:07;3.2;;;0.8;;
61739;SDS011;47645;45.288;12.038;2023-05-16T00:30:08;2.3;;;0.8;;
61739;SDS011;47645;45.288;12.038;2023-05-16T00:40:09;3.3;;;1.0;;
61739;SDS011;47645;45.288;12.038;2023-05-16T00:50:10;2.4;;;0.7;;
61739;SDS011;47645;45.288;12.038;2023-05-16T01:00:11;3.0;;;0.7;;
61739;SDS011;47645;45.288;12.038;2023-05-16T01:10:12;6.9;;;0.9;;
61739;SDS011;47645;45.288;12.038;2023-05-16T01:20:16;14.8;;;2.3;;
61739;SDS011;47645;45.288;12.038;2023-05-16T01:30:16;10.6;;;2.2;;
61739;SDS011;47645;45.288;12.038;2023-05-16T01:40:17;10.0;;;2.0;;
61739;SDS011;47645;45.288;12.038;2023-05-16T01:50:17;9.6;;;1.7;;
61739;SDS011;47645;45.288;12.038;2023-05-16T02:00:19;8.3;;;1.7;;
61739;SDS011;47645;45.288;12.038;2023-05-16T02:10:20;8.7;;;1.5;;
61739;SDS011;47645;45.288;12.038;2023-05-16T02:20:21;9.8;;;1.9;;
61739;SDS011;47645;45.288;12.038;2023-05-16T02:30:22;11.5;;;2.1;;
61739;SDS011;47645;45.288;12.038;2023-05-16T02:40:23;3.6;;;0.8;;
61739;SDS011;47645;45.288;12.038;2023-05-16T02:50:24;3.9;;;0.7;;
61739;SDS011;47645;45.288;12.038;2023-05-16T03:00:26;1.5;;;0.6;;
61739;SDS011;47645;45.288;12.038;2023-05-16T03:10:26;3.3;;;1.1;;
61739;SDS011;47645;45.288;12.038;2023-05-16T03:20:27;1.8;;;0.7;;
61739;SDS011;47645;45.288;12.038;2023-05-16T03:30:28;2.0;;;0.7;;
61739;SDS011;47645;45.288;12.038;2023-05-16T03:40:29;1.4;;;0.7;;
61739;SDS011;47645;45.288;12.038;2023-05-16T03:50:30;2.0;;;1.0;;
61739;SDS011;47645;45.288;12.038;2023-05-16T04:00:33;3.0;;;1.5;;
61739;SDS011;47645;45.288;12.038;2023-05-16T04:10:32;1.7;;;0.9;;
61739;SDS011;47645;45.288;12.038;2023-05-16T04:20:34;2.8;;;0.8;;
61739;SDS011;47645;45.288;12.038;2023-05-16T04:30:35;7.2;;;2.0;;
61739;SDS011;47645;45.288;12.038;2023-05-16T04:40:35;2.7;;;0.8;;
61739;SDS011;47645;45.288;12.038;2023-05-16T04:50:37;3.9;;;1.0;;
61739;SDS011;47645;45.288;12.038;2023-05-16T05:00:38;1.6;;;1.0;;
61739;SDS011;47645;45.288;12.038;2023-05-16T05:10:39;2.4;;;1.1;;
61739;SDS011;47645;45.288;12.038;2023-05-16T05:20:39;2.0;;;1.1;;
61739;SDS011;47645;45.288;12.038;2023-05-16T05:30:41;2.3;;;1.3;;
61739;SDS011;47645;45.288;12.038;2023-05-16T05:40:41;2.2;;;1.0;;
61739;SDS011;47645;45.288;12.038;2023-05-16T05:50:42;2.6;;;1.3;;
61739;SDS011;47645;45.288;12.038;2023-05-16T06:00:44;4.5;;;1.4;;
61739;SDS011;47645;45.288;12.038;2023-05-16T06:10:45;2.7;;;1.2;;
61739;SDS011;47645;45.288;12.038;2023-05-16T06:20:45;3.6;;;1.5;;
61739;SDS011;47645;45.288;12.038;2023-05-16T06:30:47;5.0;;;1.4;;
61739;SDS011;47645;45.288;12.038;2023-05-16T06:40:48;4.4;;;1.4;;
61739;SDS011;47645;45.288;12.038;2023-05-16T06:50:49;5.3;;;2.1;;
61739;SDS011;47645;45.288;12.038;2023-05-16T07:00:50;5.2;;;1.2;;
61739;SDS011;47645;45.288;12.038;2023-05-16T07:10:51;4.4;;;1.4;;
61739;SDS011;47645;45.288;12.038;2023-05-16T07:20:52;4.9;;;1.4;;
61739;SDS011;47645;45.288;12.038;2023-05-16T07:30:54;4.7;;;1.8;;
61739;SDS011;47645;45.288;12.038;2023-05-16T07:40:54;3.7;;;1.6;;
61739;SDS011;47645;45.288;12.038;2023-05-16T07:50:55;4.2;;;1.5;;
61739;SDS011;47645;45.288;12.038;2023-05-16T08:00:57;3.6;;;1.6;;
61739;SDS011;47645;45.288;12.038;2023-05-16T08:10:57;3.0;;;1.7;;
61739;SDS011;47645;45.288;12.038;2023-05-16T08:20:58;3.4;;;1.7;;
61739;SDS011;47645;45.288;12.038;2023-05-16T08:30:59;6.2;;;4.6;;
61739;SDS011;47645;45.288;12.038;2023-05-16T08:41:00;4.5;;;2.7;;
61739;SDS011;47645;45.288;12.038;2023-05-16T08:51:01;4.3;;;2.1;;
61739;SDS011;47645;45.288;12.038;2023-05-16T09:01:06;5.9;;;1.9;;
61739;SDS011;47645;45.288;12.038;2023-05-16T09:11:03;3.8;;;2.1;;
61739;SDS011;47645;45.288;12.038;2023-05-16T09:21:04;4.2;;;2.0;;
61739;SDS011;47645;45.288;12.038;2023-05-16T09:31:18;4.4;;;2.2;;
61739;SDS011;47645;45.288;12.038;2023-05-16T09:41:08;3.4;;;2.2;;
61739;SDS011;47645;45.288;12.038;2023-05-16T09:51:08;4.7;;;1.7;;
61739;SDS011;47645;45.288;12.038;2023-05-16T10:01:09;2.5;;;1.0;;
61739;SDS011;47645;45.288;12.038;2023-05-16T10:11:10;2.7;;;1.0;;
61739;SDS011;47645;45.288;12.038;2023-05-16T10:21:12;2.9;;;1.1;;
61739;SDS011;47645;45.288;12.038;2023-05-16T10:31:11;1.7;;;0.9;;
61739;SDS011;47645;45.288;12.038;2023-05-16T10:41:12;2.9;;;0.8;;
61739;SDS011;47645;45.288;12.038;2023-05-16T10:51:49;3.2;;;1.1;;
61739;SDS011;47645;45.288;12.038;2023-05-16T11:01:15;2.6;;;1.0;;
61739;SDS011;47645;45.288;12.038;2023-05-16T11:11:56;3.3;;;1.5;;
61739;SDS011;47645;45.288;12.038;2023-05-16T11:21:17;2.0;;;0.8;;
61739;SDS011;47645;45.288;12.038;2023-05-16T11:31:18;1.6;;;0.4;;
61739;SDS011;47645;45.288;12.038;2023-05-16T11:41:20;4.5;;;0.6;;
61739;SDS011;47645;45.288;12.038;2023-05-16T11:51:21;2.5;;;0.5;;
61739;SDS011;47645;45.288;12.038;2023-05-16T12:01:22;1.4;;;0.4;;
61739;SDS011;47645;45.288;12.038;2023-05-16T12:11:22;2.3;;;0.4;;
61739;SDS011;47645;45.288;12.038;2023-05-16T12:21:23;0.9;;;0.3;;
61739;SDS011;47645;45.288;12.038;2023-05-16T12:31:25;1.3;;;0.3;;
61739;SDS011;47645;45.288;12.038;2023-05-16T12:41:26;2.5;;;0.4;;
61739;SDS011;47645;45.288;12.038;2023-05-16T12:51:28;1.5;;;0.3;;
61739;SDS011;47645;45.288;12.038;2023-05-16T13:01:28;1.7;;;0.4;;
61739;SDS011;47645;45.288;12.038;2023-05-16T13:11:30;2.5;;;0.3;;
61739;SDS011;47645;45.288;12.038;2023-05-16T13:21:31;2.6;;;0.3;;
61739;SDS011;47645;45.288;12.038;2023-05-16T13:31:32;3.2;;;0.4;;
61739;SDS011;47645;45.288;12.038;2023-05-16T13:41:37;2.1;;;1.0;;
61739;SDS011;47645;45.288;12.038;2023-05-16T13:51:35;4.0;;;0.7;;
61739;SDS011;47645;45.288;12.038;2023-05-16T14:01:36;3.6;;;0.5;;
61739;SDS011;47645;45.288;12.038;2023-05-16T14:11:37;2.0;;;0.7;;
61739;SDS011;47645;45.288;12.038;2023-05-16T14:21:39;1.9;;;0.8;;
61739;SDS011;47645;45.288;12.038;2023-05-16T14:31:40;5.4;;;0.6;;
61739;SDS011;47645;45.288;12.038;2023-05-16T14:41:41;1.7;;;0.4;;
61739;SDS011;47645;45.288;12.038;2023-05-16T14:51:44;3.1;;;0.5;;
61739;SDS011;47645;45.288;12.038;2023-05-16T15:01:43;1.5;;;0.5;;
61739;SDS011;47645;45.288;12.038;2023-05-16T15:11:44;1.2;;;0.5;;
61739;SDS011;47645;45.288;12.038;2023-05-16T15:21:45;1.5;;;0.4;;
61739;SDS011;47645;45.288;12.038;2023-05-16T15:31:47;2.2;;;0.5;;
61739;SDS011;47645;45.288;12.038;2023-05-16T15:41:48;1.9;;;0.6;;
61739;SDS011;47645;45.288;12.038;2023-05-16T15:51:52;2.3;;;0.6;;
61739;SDS011;47645;45.288;12.038;2023-05-16T16:01:50;1.1;;;0.5;;
61739;SDS011;47645;45.288;12.038;2023-05-16T16:11:55;1.6;;;0.7;;
61739;SDS011;47645;45.288;12.038;2023-05-16T16:21:52;2.2;;;0.4;;
61739;SDS011;47645;45.288;12.038;2023-05-16T16:31:53;1.1;;;0.5;;
61739;SDS011;47645;45.288;12.038;2023-05-16T16:41:55;1.1;;;0.4;;
61739;SDS011;47645;45.288;12.038;2023-05-16T16:51:56;1.7;;;0.6;;
61739;SDS011;47645;45.288;12.038;2023-05-16T17:01:56;1.8;;;0.6;;
61739;SDS011;47645;45.288;12.038;2023-05-16T17:12:04;2.1;;;1.0;;
61739;SDS011;47645;45.288;12.038;2023-05-16T17:21:58;1.2;;;0.6;;
61739;SDS011;47645;45.288;12.038;2023-05-16T17:31:59;1.3;;;0.6;;
61739;SDS011;47645;45.288;12.038;2023-05-16T17:42:01;2.9;;;0.6;;
61739;SDS011;47645;45.288;12.038;2023-05-16T17:52:02;2.6;;;1.5;;
61739;SDS011;47645;45.288;12.038;2023-05-16T18:02:04;2.4;;;1.3;;
61739;SDS011;47645;45.288;12.038;2023-05-16T18:12:04;1.5;;;0.8;;
61739;SDS011;47645;45.288;12.038;2023-05-16T18:22:07;1.0;;;0.5;;
61739;SDS011;47645;45.288;12.038;2023-05-16T18:32:07;1.4;;;0.6;;
61739;SDS011;47645;45.288;12.038;2023-05-16T18:42:07;2.0;;;0.7;;
61739;SDS011;47645;45.288;12.038;2023-05-16T18:52:08;2.9;;;1.5;;
61739;SDS011;47645;45.288;12.038;2023-05-16T19:02:09;4.1;;;1.5;;
61739;SDS011;47645;45.288;12.038;2023-05-16T19:12:10;3.3;;;1.4;;
61739;SDS011;47645;45.288;12.038;2023-05-16T19:22:11;2.4;;;1.4;;
61739;SDS011;47645;45.288;12.038;2023-05-16T19:32:12;2.8;;;1.4;;
61739;SDS011;47645;45.288;12.038;2023-05-16T19:42:13;2.8;;;1.6;;
61739;SDS011;47645;45.288;12.038;2023-05-16T19:52:14;3.5;;;1.8;;
61739;SDS011;47645;45.288;12.038;2023-05-16T20:02:16;4.2;;;2.2;;
61739;SDS011;47645;45.288;12.038;2023-05-16T20:12:16;4.1;;;1.8;;
61739;SDS011;47645;45.288;12.038;2023-05-16T20:22:18;3.5;;;1.8;;
61739;SDS011;47645;45.288;12.038;2023-05-16T20:32:18;3.4;;;2.0;;
61739;SDS011;47645;45.288;12.038;2023-05-16T20:42:19;3.3;;;1.9;;
61739;SDS011;47645;45.288;12.038;2023-05-16T20:52:20;4.0;;;2.2;;
61739;SDS011;47645;45.288;12.038;2023-05-16T21:02:21;4.3;;;2.2;;
61739;SDS011;47645;45.288;12.038;2023-05-16T21:12:22;3.3;;;2.0;;
61739;SDS011;47645;45.288;12.038;2023-05-16T21:22:23;3.3;;;2.1;;
61739;SDS011;47645;45.288;12.038;2023-05-16T21:32:24;4.0;;;2.1;;
61739;SDS011;47645;45.288;12.038;2023-05-16T21:42:25;3.2;;;1.8;;
61739;SDS011;47645;45.288;12.038;2023-05-16T21:52:26;3.3;;;1.5;;
61739;SDS011;47645;45.288;12.038;2023-05-16T22:02:27;3.0;;;1.9;;
61739;SDS011;47645;45.288;12.038;2023-05-16T22:12:28;3.1;;;1.8;;
61739;SDS011;47645;45.288;12.038;2023-05-16T22:22:29;2.1;;;1.1;;
61739;SDS011;47645;45.288;12.038;2023-05-16T22:32:30;1.8;;;1.2;;
61739;SDS011;47645;45.288;12.038;2023-05-16T22:42:31;3.5;;;1.1;;
61739;SDS011;47645;45.288;12.038;2023-05-16T22:52:32;5.2;;;1.6;;
61739;SDS011;47645;45.288;12.038;2023-05-16T23:02:33;4.0;;;1.5;;
61739;SDS011;47645;45.288;12.038;2023-05-16T23:12:34;2.6;;;1.5;;
61739;SDS011;47645;45.288;12.038;2023-05-16T23:22:35;2.4;;;1.4;;
61739;SDS011;47645;45.288;12.038;2023-05-16T23:32:36;3.7;;;1.9;;
61739;SDS011;47645;45.288;12.038;2023-05-16T23:42:37;5.8;;;1.7;;
61739;SDS011;47645;45.288;12.038;2023-05-16T23:52:38;2.5;;;1.5;;
